createdAt,value
2022-11-24T00:01:15.647Z,36.75
2022-11-24T00:03:44.241Z,39.72
2022-11-24T00:06:15.822Z,42.33
2022-11-24T00:08:45.962Z,43.35
2022-11-24T00:11:16.284Z,45.35
2022-11-24T00:13:44.574Z,43.80
2022-11-24T00:16:14.744Z,40.10
2022-11-24T00:18:45.162Z,37.88
2022-11-24T00:21:15.306Z,37.17
2022-11-24T00:23:43.303Z,36.60
2022-11-24T00:26:13.152Z,36.65
2022-11-24T00:28:42.043Z,41.60
2022-11-24T00:31:17.921Z,41.70
2022-11-24T00:33:46.791Z,42.25
2022-11-24T00:36:17.557Z,41.95
2022-11-24T00:38:45.614Z,39.40
2022-11-24T00:41:14.151Z,40.90
2022-11-24T00:43:42.229Z,41.33
2022-11-24T00:46:10.399Z,39.30
2022-11-24T00:48:38.324Z,39.60
2022-11-24T00:51:09.618Z,45.92
2022-11-24T00:53:38.950Z,40.25
2022-11-24T00:56:07.903Z,40.65
2022-11-24T00:58:36.424Z,41.72
2022-11-24T01:01:06.424Z,39.85
2022-11-24T01:03:35.404Z,37.28
2022-11-24T01:06:05.239Z,38.85
2022-11-24T01:08:33.115Z,43.22
2022-11-24T01:11:10.763Z,41.58
2022-11-24T01:13:38.786Z,42.15
2022-11-24T01:16:07.300Z,40.70
2022-11-24T01:18:35.329Z,41.53
2022-11-24T01:21:09.800Z,40.42
2022-11-24T01:23:38.038Z,41.42
2022-11-24T01:26:07.168Z,42.72
2022-11-24T01:28:38.596Z,42.45
2022-11-24T01:31:10.678Z,41.58
2022-11-24T01:33:38.751Z,42.78
2022-11-24T01:36:07.399Z,39.50
2022-11-24T01:38:35.356Z,42.17
2022-11-24T01:41:05.411Z,41.60
2022-11-24T01:43:33.807Z,41.83
2022-11-24T01:46:12.118Z,42.05
2022-11-24T01:48:44.762Z,43.05
2022-11-24T01:51:16.274Z,44.22
2022-11-24T01:53:46.879Z,40.53
2022-11-24T01:56:15.172Z,39.67
2022-11-24T01:58:45.159Z,41.25
2022-11-24T02:01:14.668Z,40.67
2022-11-24T02:03:46.807Z,38.78
2022-11-24T02:08:51.119Z,39.35
2022-11-24T02:11:20.779Z,37.17
2022-11-24T02:13:49.642Z,39.33
2022-11-24T02:16:19.099Z,38.55
2022-11-24T02:18:47.062Z,40.30
2022-11-24T02:21:17.326Z,40.55
2022-11-24T02:23:51.836Z,41.03
2022-11-24T02:26:34.339Z,41.03
2022-11-24T02:29:03.255Z,40.15
2022-11-24T02:31:31.499Z,39.95
2022-11-24T02:33:59.467Z,40.70
2022-11-24T02:36:27.712Z,40.38
2022-11-24T02:38:55.594Z,41.58
2022-11-24T02:41:26.484Z,39.58
2022-11-24T02:43:57.740Z,39.38
2022-11-24T02:46:26.240Z,41.40
2022-11-24T02:48:54.295Z,41.33
2022-11-24T02:51:23.048Z,43.58
2022-11-24T02:53:50.906Z,43.50
2022-11-24T02:56:18.928Z,44.45
2022-11-24T02:58:46.883Z,42.03
2022-11-24T03:01:16.261Z,43.25
2022-11-24T03:03:44.109Z,40.67
2022-11-24T03:06:12.347Z,41.78
2022-11-24T03:08:40.145Z,42.75
2022-11-24T03:11:08.221Z,39.67
2022-11-24T03:13:35.973Z,41.05
2022-11-24T03:16:04.068Z,42.70
2022-11-24T03:18:33.171Z,42.58
2022-11-24T03:21:01.459Z,40.65
2022-11-24T03:23:29.613Z,39.50
2022-11-24T03:26:07.958Z,40.55
2022-11-24T03:28:35.856Z,39.40
2022-11-24T03:31:04.059Z,41.00
2022-11-24T03:33:33.380Z,39.97
2022-11-24T03:36:01.384Z,37.83
2022-11-24T03:38:29.281Z,40.70
2022-11-24T03:40:57.543Z,41.67
2022-11-24T03:43:25.296Z,40.40
2022-11-24T03:45:53.339Z,41.20
2022-11-24T03:48:22.206Z,42.28
2022-11-24T03:50:56.248Z,41.33
2022-11-24T03:53:25.888Z,40.72
2022-11-24T03:55:54.027Z,40.42
2022-11-24T03:58:21.919Z,38.67
2022-11-24T04:00:50.561Z,40.75
2022-11-24T04:03:19.179Z,41.63
2022-11-24T04:05:47.944Z,41.22
2022-11-24T04:08:17.566Z,41.50
2022-11-24T04:10:45.620Z,43.22
2022-11-24T04:13:14.880Z,41.50
2022-11-24T04:15:44.355Z,43.70
2022-11-24T04:18:13.380Z,42.55
2022-11-24T04:20:42.421Z,39.97
2022-11-24T04:23:10.916Z,41.97
2022-11-24T04:25:41.508Z,42.65
2022-11-24T04:28:09.307Z,42.38
2022-11-24T04:30:38.591Z,43.25
2022-11-24T04:33:06.462Z,41.78
2022-11-24T04:35:34.733Z,43.95
2022-11-24T04:38:03.423Z,41.97
2022-11-24T04:40:31.703Z,44.30
2022-11-24T04:43:00.850Z,42.60
2022-11-24T04:45:28.932Z,42.15
2022-11-24T04:47:56.898Z,39.88
2022-11-24T04:50:25.287Z,41.58
2022-11-24T04:52:53.326Z,43.88
2022-11-24T04:55:21.543Z,40.38
2022-11-24T04:57:49.611Z,40.38
2022-11-24T05:00:20.115Z,40.75
2022-11-24T05:02:47.981Z,43.33
2022-11-24T05:05:16.270Z,40.97
2022-11-24T05:07:44.090Z,40.60
2022-11-24T05:10:29.703Z,41.13
2022-11-24T05:12:59.423Z,42.58
2022-11-24T05:15:28.863Z,43.33
2022-11-24T05:17:57.206Z,41.42
2022-11-24T05:20:25.704Z,42.15
2022-11-24T05:22:53.471Z,42.63
2022-11-24T05:25:21.617Z,41.97
2022-11-24T05:27:49.379Z,41.47
2022-11-24T05:30:17.539Z,42.88
2022-11-24T05:32:46.604Z,39.83
2022-11-24T05:35:14.971Z,41.10
2022-11-24T05:37:42.744Z,41.25
2022-11-24T05:40:11.209Z,42.97
2022-11-24T05:42:46.757Z,42.97
2022-11-24T05:45:17.933Z,39.78
2022-11-24T05:47:48.395Z,39.53
2022-11-24T05:50:18.150Z,44.47
2022-11-24T05:52:46.366Z,41.30
2022-11-24T05:55:15.662Z,43.28
2022-11-24T05:57:43.760Z,42.22
2022-11-24T06:00:13.171Z,42.95
2022-11-24T06:02:41.345Z,43.30
2022-11-24T06:05:11.563Z,43.63
2022-11-24T06:07:39.565Z,41.67
2022-11-24T06:10:08.199Z,44.00
2022-11-24T06:12:36.405Z,42.85
2022-11-24T06:15:04.915Z,43.40
2022-11-24T06:17:32.632Z,42.13
2022-11-24T06:20:00.582Z,44.20
2022-11-24T06:22:29.714Z,43.63
2022-11-24T06:24:57.841Z,43.20
2022-11-24T06:27:25.887Z,44.20
2022-11-24T06:29:54.344Z,46.95
2022-11-24T06:32:22.103Z,46.10
2022-11-24T06:34:50.159Z,48.20
2022-11-24T06:37:18.123Z,49.35
2022-11-24T06:39:48.399Z,47.33
2022-11-24T06:42:18.776Z,45.47
2022-11-24T06:44:47.111Z,50.58
2022-11-24T06:47:15.053Z,46.30
2022-11-24T06:49:43.287Z,47.22
2022-11-24T06:52:11.163Z,44.42
2022-11-24T06:54:39.420Z,46.95
2022-11-24T06:57:08.605Z,47.00
2022-11-24T06:59:37.367Z,44.20
2022-11-24T07:02:05.196Z,48.13
2022-11-24T07:04:33.497Z,46.05
2022-11-24T07:07:01.499Z,43.97
2022-11-24T07:09:29.597Z,45.22
2022-11-24T07:11:57.543Z,44.80
2022-11-24T07:14:27.017Z,49.78
2022-11-24T07:16:55.009Z,45.53
2022-11-24T07:19:25.051Z,45.28
2022-11-24T07:21:53.010Z,42.28
2022-11-24T07:24:21.093Z,44.72
2022-11-24T07:26:48.834Z,45.60
2022-11-24T07:29:16.951Z,45.50
2022-11-24T07:31:46.898Z,44.42
2022-11-24T07:34:15.373Z,42.78
2022-11-24T07:36:45.013Z,42.13
2022-11-24T07:39:13.113Z,40.83
2022-11-24T07:41:40.994Z,41.97
2022-11-24T07:44:09.183Z,41.20
2022-11-24T07:46:37.014Z,38.53
2022-11-24T07:49:06.443Z,38.20
2022-11-24T07:51:34.225Z,37.67
2022-11-24T07:54:02.246Z,41.10
2022-11-24T07:56:30.264Z,42.55
2022-11-24T07:58:58.285Z,40.28
2022-11-24T08:01:26.097Z,42.05
2022-11-24T08:03:54.266Z,38.53
2022-11-24T08:06:27.319Z,40.88
2022-11-24T08:08:57.265Z,51.00
2022-11-24T08:11:25.778Z,54.05
2022-11-24T08:13:54.009Z,44.25
2022-11-24T08:16:22.057Z,56.95
2022-11-24T08:18:51.891Z,55.20
2022-11-24T08:21:19.984Z,47.88
2022-11-24T08:23:49.855Z,92.70
2022-11-24T08:26:19.323Z,90.72
2022-11-24T08:28:48.592Z,66.35
2022-11-24T08:31:19.509Z,54.70
2022-11-24T08:33:47.776Z,59.85
2022-11-24T08:36:18.037Z,51.15
2022-11-24T08:38:46.407Z,61.70
2022-11-24T08:41:17.592Z,44.97
2022-11-24T08:43:45.843Z,50.38
2022-11-24T08:46:17.096Z,42.03
2022-11-24T08:48:48.752Z,50.10
2022-11-24T08:51:19.371Z,44.90
2022-11-24T08:53:47.761Z,44.00
2022-11-24T08:56:16.856Z,43.28
2022-11-24T08:58:45.140Z,42.42
2022-11-24T09:01:14.884Z,38.38
2022-11-24T09:03:50.072Z,39.30
2022-11-24T09:06:19.171Z,42.33
2022-11-24T09:08:47.323Z,36.35
2022-11-24T09:11:17.430Z,38.53
2022-11-24T09:13:45.995Z,38.17
2022-11-24T09:16:15.675Z,40.65
2022-11-24T09:18:45.084Z,39.85
2022-11-24T09:21:14.727Z,35.88
2022-11-24T09:23:43.828Z,35.75
2022-11-24T09:26:13.523Z,40.05
2022-11-24T09:28:43.647Z,36.65
2022-11-24T09:31:13.679Z,36.70
2022-11-24T09:33:42.489Z,34.72
2022-11-24T09:36:10.884Z,38.90
2022-11-24T09:38:39.656Z,35.67
2022-11-24T09:41:27.850Z,37.05
2022-11-24T09:44:06.286Z,36.30
2022-11-24T09:46:41.231Z,33.88
2022-11-24T09:49:13.542Z,36.92
2022-11-24T09:51:44.745Z,36.80
2022-11-24T09:54:17.779Z,36.83
2022-11-24T09:56:47.922Z,37.03
2022-11-24T09:59:20.923Z,36.65
2022-11-24T10:01:50.210Z,35.97
2022-11-24T10:04:22.500Z,37.00
2022-11-24T10:06:56.924Z,39.70
2022-11-24T10:09:36.073Z,40.10
2022-11-24T10:12:17.359Z,42.17
2022-11-24T10:15:04.983Z,46.63
2022-11-24T10:17:48.124Z,46.20
2022-11-24T10:20:27.473Z,47.53
2022-11-24T10:23:12.383Z,53.22
2022-11-24T10:25:47.124Z,54.47
2022-11-24T10:28:16.676Z,55.03
2022-11-24T10:30:46.206Z,54.20
2022-11-24T10:33:28.760Z,53.85
2022-11-24T10:36:04.396Z,52.72
2022-11-24T10:38:36.814Z,49.78
2022-11-24T10:41:09.279Z,53.30
2022-11-24T10:43:37.824Z,68.75
2022-11-24T10:46:13.008Z,53.22
2022-11-24T10:48:46.875Z,53.88
2022-11-24T10:51:51.964Z,64.75
2022-11-24T10:54:23.167Z,49.83
2022-11-24T10:56:52.991Z,51.03
2022-11-24T10:59:28.805Z,62.20
2022-11-24T11:01:59.147Z,53.90
2022-11-24T11:04:29.240Z,55.83
2022-11-24T11:07:17.188Z,60.65
2022-11-24T11:09:45.307Z,57.53
2022-11-24T11:12:42.890Z,61.92
2022-11-24T11:15:24.419Z,60.28
2022-11-24T11:17:58.674Z,54.83
2022-11-24T11:20:31.093Z,54.65
2022-11-24T11:23:01.711Z,51.10
2022-11-24T11:25:33.731Z,54.88
2022-11-24T11:31:17.849Z,60.85
2022-11-24T11:34:08.276Z,56.03
2022-11-24T11:36:43.115Z,59.97
2022-11-24T11:39:23.222Z,60.13
2022-11-24T11:41:54.879Z,57.55
2022-11-24T11:44:34.221Z,55.67
2022-11-24T11:47:12.724Z,58.85
2022-11-24T11:49:42.103Z,59.92
2022-11-24T11:52:41.856Z,60.83
2022-11-24T11:55:29.265Z,61.28
2022-11-24T11:58:06.401Z,62.38
2022-11-24T12:00:39.368Z,63.30
2022-11-24T12:03:36.143Z,59.10
2022-11-24T12:06:15.598Z,56.25
2022-11-24T12:09:19.344Z,58.45
2022-11-24T12:11:46.889Z,59.67
2022-11-24T12:14:25.907Z,59.33
2022-11-24T12:17:04.007Z,61.85
2022-11-24T12:20:02.172Z,61.53
2022-11-24T12:22:38.992Z,79.43
2022-11-24T12:25:23.260Z,64.93
2022-11-24T12:28:03.582Z,65.25
2022-11-24T12:30:41.576Z,68.10
2022-11-24T12:33:20.098Z,60.70
2022-11-24T12:35:54.452Z,73.85
2022-11-24T12:38:33.465Z,70.07
2022-11-24T12:44:32.106Z,73.15
2022-11-24T12:47:10.031Z,76.90
2022-11-24T12:49:46.884Z,71.00
2022-11-24T12:52:22.107Z,72.13
2022-11-24T12:54:51.529Z,70.90
2022-11-24T12:57:26.504Z,71.53
2022-11-24T13:00:02.503Z,73.22
2022-11-24T13:02:46.282Z,69.50
2022-11-24T13:05:22.775Z,73.78
2022-11-24T13:07:57.849Z,74.07
2022-11-24T13:13:25.031Z,72.10
2022-11-24T13:19:10.250Z,67.35
2022-11-24T13:22:01.425Z,71.07
2022-11-24T13:24:33.958Z,61.70
2022-11-24T13:27:39.992Z,69.90
2022-11-24T13:30:49.888Z,58.88
2022-11-24T13:33:39.070Z,72.25
2022-11-24T13:36:34.782Z,73.30
2022-11-24T13:39:06.095Z,73.45
2022-11-24T13:42:07.205Z,73.53
2022-11-24T13:44:49.315Z,74.90
2022-11-24T13:47:41.383Z,76.00
2022-11-24T13:50:46.960Z,70.40
2022-11-24T13:53:22.839Z,72.32
2022-11-24T13:55:57.920Z,75.30
2022-11-24T13:58:31.648Z,72.88
2022-11-24T14:01:06.527Z,68.22
2022-11-24T14:03:37.308Z,67.43
2022-11-24T14:06:06.912Z,71.90
2022-11-24T14:08:39.228Z,74.55
2022-11-24T14:11:14.129Z,78.30
2022-11-24T14:13:42.265Z,78.63
2022-11-24T14:16:18.018Z,75.18
2022-11-24T14:18:47.971Z,74.45
2022-11-24T14:21:23.702Z,76.00
2022-11-24T14:23:55.720Z,68.63
2022-11-24T14:26:26.452Z,75.03
2022-11-24T14:28:55.859Z,68.63
2022-11-24T14:31:25.766Z,69.95
2022-11-24T14:34:15.264Z,69.57
2022-11-24T14:36:43.839Z,69.25
2022-11-24T14:39:15.557Z,75.15
2022-11-24T14:41:51.557Z,70.40
2022-11-24T14:44:23.792Z,73.25
2022-11-24T14:46:52.841Z,85.43
2022-11-24T14:49:23.412Z,74.97
2022-11-24T14:51:57.007Z,80.53
2022-11-24T14:54:26.594Z,99.20
2022-11-24T14:57:00.543Z,86.57
2022-11-24T14:59:30.123Z,77.47
2022-11-24T15:01:59.513Z,84.95
2022-11-24T15:07:24.303Z,91.45
2022-11-24T15:09:57.678Z,88.88
2022-11-24T15:12:30.490Z,86.80
2022-11-24T15:15:01.168Z,84.53
2022-11-24T15:17:30.511Z,85.90
2022-11-24T15:20:01.903Z,83.00
2022-11-24T15:22:36.131Z,86.90
2022-11-24T15:25:27.575Z,87.95
2022-11-24T15:27:56.213Z,87.60
2022-11-24T15:30:23.981Z,80.15
2022-11-24T15:32:53.431Z,80.78
2022-11-24T15:35:22.863Z,78.78
2022-11-24T15:37:51.203Z,77.07
2022-11-24T15:40:19.535Z,73.15
2022-11-24T15:42:52.460Z,67.72
2022-11-24T15:45:21.248Z,69.90
2022-11-24T15:47:49.290Z,62.95
2022-11-24T15:50:17.657Z,60.72
2022-11-24T15:52:46.563Z,61.97
2022-11-24T15:55:18.678Z,62.25
2022-11-24T16:00:18.149Z,58.58
2022-11-24T16:02:46.304Z,57.58
2022-11-24T16:05:15.640Z,58.03
2022-11-24T16:07:45.477Z,61.65
2022-11-24T16:10:22.932Z,62.78
2022-11-24T16:12:51.135Z,63.90
2022-11-24T16:15:20.575Z,72.80
2022-11-24T16:17:49.028Z,69.97
2022-11-24T16:20:17.184Z,74.03
2022-11-24T16:22:45.187Z,69.22
2022-11-24T16:25:13.744Z,71.85
2022-11-24T16:27:41.942Z,80.20
2022-11-24T16:30:11.709Z,80.47
2022-11-24T16:32:40.846Z,78.65
2022-11-24T16:35:09.344Z,81.68
2022-11-24T16:37:37.117Z,75.65
2022-11-24T16:40:06.016Z,81.45
2022-11-24T16:42:34.029Z,76.43
2022-11-24T16:45:02.027Z,71.10
2022-11-24T16:47:30.023Z,69.40
2022-11-24T16:49:59.511Z,71.63
2022-11-24T16:52:27.274Z,71.70
2022-11-24T16:54:55.456Z,73.95
2022-11-24T16:57:23.587Z,67.10
2022-11-24T16:59:51.621Z,70.80
2022-11-24T17:02:19.771Z,78.00
2022-11-24T17:04:49.704Z,71.78
2022-11-24T17:07:19.071Z,75.32
2022-11-24T17:09:47.203Z,72.75
2022-11-24T17:12:15.015Z,81.85
2022-11-24T17:14:49.145Z,77.97
2022-11-24T17:17:30.960Z,84.00
2022-11-24T17:19:59.285Z,78.00
2022-11-24T17:22:28.873Z,79.45
2022-11-24T17:24:56.888Z,82.00
2022-11-24T17:27:24.682Z,82.30
2022-11-24T17:29:52.858Z,85.63
2022-11-24T17:32:20.646Z,79.60
2022-11-24T17:34:48.775Z,73.70
2022-11-24T17:37:17.387Z,76.20
2022-11-24T17:40:05.683Z,71.80
2022-11-24T17:42:34.546Z,66.53
2022-11-24T17:45:02.585Z,69.82
2022-11-24T17:47:30.618Z,70.00
2022-11-24T17:49:58.687Z,68.22
2022-11-24T17:52:26.513Z,67.10
2022-11-24T17:54:55.910Z,69.60
2022-11-24T17:57:23.786Z,67.70
2022-11-24T17:59:52.527Z,64.75
2022-11-24T18:02:20.439Z,54.78
2022-11-24T18:04:48.642Z,54.60
2022-11-24T18:07:16.865Z,55.95
2022-11-24T18:09:45.175Z,54.30
2022-11-24T18:12:14.515Z,51.30
2022-11-24T18:14:42.663Z,51.55
2022-11-24T18:17:10.465Z,63.85
2022-11-24T18:19:38.779Z,56.20
2022-11-24T18:22:06.523Z,56.47
2022-11-24T18:24:34.494Z,55.53
2022-11-24T18:27:02.227Z,51.70
2022-11-24T18:29:31.637Z,56.45
2022-11-24T18:31:59.499Z,57.42
2022-11-24T18:34:27.795Z,50.00
2022-11-24T18:36:55.588Z,50.10
2022-11-24T18:39:23.636Z,47.35
2022-11-24T18:41:51.499Z,50.58
2022-11-24T18:44:19.726Z,48.25
2022-11-24T18:46:49.655Z,49.33
2022-11-24T18:49:17.873Z,49.08
2022-11-24T18:51:45.608Z,54.42
2022-11-24T18:54:13.602Z,57.85
2022-11-24T18:56:41.346Z,57.35
2022-11-24T18:59:09.567Z,55.15
2022-11-24T19:01:37.859Z,53.17
2022-11-24T19:04:07.344Z,52.40
2022-11-24T19:06:37.480Z,55.83
2022-11-24T19:09:07.811Z,65.07
2022-11-24T19:11:37.983Z,57.85
2022-11-24T19:14:08.593Z,80.53
2022-11-24T19:16:36.626Z,77.53
2022-11-24T19:19:05.232Z,75.45
2022-11-24T19:21:37.181Z,103.03
2022-11-24T19:24:06.403Z,74.55
2022-11-24T19:26:35.754Z,71.07
2022-11-24T19:29:04.025Z,88.35
2022-11-24T19:31:32.709Z,74.10
2022-11-24T19:34:02.773Z,69.97
2022-11-24T19:36:30.795Z,80.55
2022-11-24T19:39:00.476Z,65.97
2022-11-24T19:41:30.827Z,74.53
2022-11-24T19:43:59.968Z,80.50
2022-11-24T19:46:29.591Z,58.00
2022-11-24T19:49:00.579Z,75.78
2022-11-24T19:51:32.140Z,51.88
2022-11-24T19:54:02.408Z,70.25
2022-11-24T19:56:31.861Z,60.22
2022-11-24T19:59:00.038Z,55.63
2022-11-24T20:01:29.837Z,56.92
2022-11-24T20:03:59.938Z,62.85
2022-11-24T20:06:29.146Z,68.93
2022-11-24T20:08:58.463Z,62.97
2022-11-24T20:11:28.710Z,66.20
2022-11-24T20:13:57.990Z,66.32
2022-11-24T20:16:29.379Z,59.83
2022-11-24T20:18:58.624Z,65.70
2022-11-24T20:21:28.786Z,70.53
2022-11-24T20:24:00.529Z,60.55
2022-11-24T20:26:32.213Z,63.67
2022-11-24T20:29:00.990Z,67.55
2022-11-24T20:31:30.961Z,69.15
2022-11-24T20:34:00.344Z,62.65
2022-11-24T20:36:30.481Z,62.10
2022-11-24T20:39:00.289Z,74.65
2022-11-24T20:41:31.206Z,77.38
2022-11-24T20:44:01.042Z,64.10
2022-11-24T20:46:31.345Z,66.55
2022-11-24T20:49:00.703Z,69.07
2022-11-24T20:51:30.761Z,76.00
2022-11-24T20:54:00.435Z,75.55
2022-11-24T20:56:31.735Z,69.65
2022-11-24T20:58:59.968Z,68.25
2022-11-24T21:01:30.286Z,73.72
2022-11-24T21:03:59.982Z,64.57
2022-11-24T21:06:29.563Z,66.82
2022-11-24T21:09:03.417Z,65.15
2022-11-24T21:11:40.967Z,70.22
2022-11-24T21:14:09.698Z,64.55
2022-11-24T21:16:39.010Z,72.95
2022-11-24T21:19:11.364Z,68.65
2022-11-24T21:21:40.971Z,70.47
2022-11-24T21:24:12.303Z,64.05
2022-11-24T21:26:42.538Z,66.10
2022-11-24T21:29:12.979Z,65.10
2022-11-24T21:31:41.010Z,66.95
2022-11-24T21:34:09.621Z,64.13
2022-11-24T21:36:44.794Z,72.63
2022-11-24T21:39:14.571Z,64.70
2022-11-24T21:41:44.173Z,73.53
2022-11-24T21:44:12.819Z,67.40
2022-11-24T21:46:46.080Z,67.43
2022-11-24T21:49:17.824Z,70.38
2022-11-24T21:51:45.652Z,72.65
2022-11-24T21:54:13.759Z,76.35
2022-11-24T21:56:42.886Z,79.97
2022-11-24T21:59:11.111Z,77.13
2022-11-24T22:01:39.112Z,83.47
2022-11-24T22:04:07.146Z,80.75
2022-11-24T22:06:35.262Z,80.95
2022-11-24T22:09:03.484Z,81.32
2022-11-24T22:11:31.384Z,82.30
2022-11-24T22:14:00.752Z,89.95
2022-11-24T22:16:28.719Z,92.82
2022-11-24T22:18:56.761Z,87.43
2022-11-24T22:21:29.824Z,90.22
2022-11-24T22:23:58.259Z,85.53
2022-11-24T22:26:26.664Z,94.10
2022-11-24T22:28:55.519Z,88.55
2022-11-24T22:31:27.067Z,88.03
2022-11-24T22:33:56.387Z,84.28
2022-11-24T22:36:26.842Z,84.13
2022-11-24T22:38:56.007Z,86.10
2022-11-24T22:41:24.541Z,82.00
2022-11-24T22:43:52.695Z,78.72
2022-11-24T22:46:22.083Z,77.25
2022-11-24T22:48:53.005Z,74.65
2022-11-24T22:51:22.679Z,70.72
2022-11-24T22:53:52.879Z,71.90
2022-11-24T22:56:21.474Z,78.35
2022-11-24T22:58:50.168Z,76.07
2022-11-24T23:01:20.269Z,75.57
2022-11-24T23:03:48.907Z,79.93
2022-11-24T23:06:20.211Z,78.22
2022-11-24T23:08:50.227Z,77.22
2022-11-24T23:11:20.788Z,79.47
2022-11-24T23:13:49.361Z,81.88
2022-11-24T23:16:18.786Z,83.13
2022-11-24T23:18:52.433Z,77.10
2022-11-24T23:21:25.211Z,70.68
2022-11-24T23:23:54.110Z,72.65
2022-11-24T23:26:24.151Z,69.25
2022-11-24T23:28:52.156Z,61.22
2022-11-24T23:31:22.157Z,64.15
2022-11-24T23:33:50.260Z,70.40
2022-11-24T23:36:19.831Z,69.97
2022-11-24T23:38:49.663Z,69.25
2022-11-24T23:41:20.435Z,69.45
2022-11-24T23:43:48.833Z,67.07
2022-11-24T23:46:18.212Z,73.72
2022-11-24T23:48:47.919Z,70.20
2022-11-24T23:51:18.282Z,77.50
2022-11-24T23:53:48.171Z,90.20
2022-11-24T23:56:19.270Z,65.55
2022-11-24T23:58:47.863Z,61.75
